sensor_id;sensor_type;location;lat;lon;timestamp;P1;durP1;ratioP1;P2;durP2;ratioP2
22357;SDS011;11346;50.150;8.150;2023-06-10T00:02:04;9.93;;;6.80;;
22357;SDS011;11346;50.150;8.150;2023-06-10T00:04:32;9.70;;;6.70;;
22357;SDS011;11346;50.150;8.150;2023-06-10T00:07:01;11.87;;;6.80;;
22357;SDS011;11346;50.150;8.150;2023-06-10T00:09:28;8.67;;;6.53;;
22357;SDS011;11346;50.150;8.150;2023-06-10T00:11:55;8.40;;;6.53;;
22357;SDS011;11346;50.150;8.150;2023-06-10T00:14:26;9.50;;;6.90;;
22357;SDS011;11346;50.150;8.150;2023-06-10T00:16:53;8.90;;;6.50;;
22357;SDS011;11346;50.150;8.150;2023-06-10T00:19:20;12.87;;;7.10;;
22357;SDS011;11346;50.150;8.150;2023-06-10T00:21:50;9.63;;;6.50;;
22357;SDS011;11346;50.150;8.150;2023-06-10T00:24:18;10.07;;;6.57;;
22357;SDS011;11346;50.150;8.150;2023-06-10T00:26:45;13.07;;;6.53;;
22357;SDS011;11346;50.150;8.150;2023-06-10T00:29:12;8.27;;;6.07;;
22357;SDS011;11346;50.150;8.150;2023-06-10T00:31:40;7.83;;;6.30;;
22357;SDS011;11346;50.150;8.150;2023-06-10T00:34:08;10.10;;;6.40;;
22357;SDS011;11346;50.150;8.150;2023-06-10T00:36:35;7.87;;;6.07;;
22357;SDS011;11346;50.150;8.150;2023-06-10T00:39:02;10.83;;;6.57;;
22357;SDS011;11346;50.150;8.150;2023-06-10T00:41:30;8.53;;;6.60;;
22357;SDS011;11346;50.150;8.150;2023-06-10T00:43:58;8.03;;;6.47;;
22357;SDS011;11346;50.150;8.150;2023-06-10T00:46:25;9.57;;;5.77;;
22357;SDS011;11346;50.150;8.150;2023-06-10T00:48:54;7.83;;;5.97;;
22357;SDS011;11346;50.150;8.150;2023-06-10T00:51:21;7.77;;;6.10;;
22357;SDS011;11346;50.150;8.150;2023-06-10T00:53:49;8.40;;;5.93;;
22357;SDS011;11346;50.150;8.150;2023-06-10T00:56:16;7.77;;;6.37;;
22357;SDS011;11346;50.150;8.150;2023-06-10T00:58:43;8.93;;;5.73;;
22357;SDS011;11346;50.150;8.150;2023-06-10T01:01:11;10.80;;;6.37;;
22357;SDS011;11346;50.150;8.150;2023-06-10T01:03:38;9.13;;;6.10;;
22357;SDS011;11346;50.150;8.150;2023-06-10T01:06:09;6.70;;;5.30;;
22357;SDS011;11346;50.150;8.150;2023-06-10T01:08:44;8.83;;;5.77;;
22357;SDS011;11346;50.150;8.150;2023-06-10T01:11:14;7.37;;;5.70;;
22357;SDS011;11346;50.150;8.150;2023-06-10T01:13:44;12.43;;;5.70;;
22357;SDS011;11346;50.150;8.150;2023-06-10T01:16:12;9.27;;;5.73;;
22357;SDS011;11346;50.150;8.150;2023-06-10T01:18:40;10.30;;;6.13;;
22357;SDS011;11346;50.150;8.150;2023-06-10T01:23:43;6.40;;;5.70;;
22357;SDS011;11346;50.150;8.150;2023-06-10T01:26:10;8.10;;;5.60;;
22357;SDS011;11346;50.150;8.150;2023-06-10T01:28:38;7.00;;;6.30;;
22357;SDS011;11346;50.150;8.150;2023-06-10T01:31:09;9.00;;;6.90;;
22357;SDS011;11346;50.150;8.150;2023-06-10T01:33:39;10.23;;;7.23;;
22357;SDS011;11346;50.150;8.150;2023-06-10T01:36:08;9.33;;;7.00;;
22357;SDS011;11346;50.150;8.150;2023-06-10T01:38:36;12.30;;;6.70;;
22357;SDS011;11346;50.150;8.150;2023-06-10T01:41:07;7.67;;;6.33;;
22357;SDS011;11346;50.150;8.150;2023-06-10T01:43:37;9.70;;;6.87;;
22357;SDS011;11346;50.150;8.150;2023-06-10T01:46:04;12.90;;;8.00;;
22357;SDS011;11346;50.150;8.150;2023-06-10T01:48:31;8.73;;;7.57;;
22357;SDS011;11346;50.150;8.150;2023-06-10T01:50:58;11.33;;;7.20;;
22357;SDS011;11346;50.150;8.150;2023-06-10T01:53:25;8.97;;;7.00;;
22357;SDS011;11346;50.150;8.150;2023-06-10T01:55:52;11.47;;;7.80;;
22357;SDS011;11346;50.150;8.150;2023-06-10T01:58:20;9.87;;;6.83;;
22357;SDS011;11346;50.150;8.150;2023-06-10T02:00:48;8.47;;;7.17;;
22357;SDS011;11346;50.150;8.150;2023-06-10T02:03:15;8.80;;;7.20;;
22357;SDS011;11346;50.150;8.150;2023-06-10T02:05:42;8.90;;;7.23;;
22357;SDS011;11346;50.150;8.150;2023-06-10T02:08:09;9.97;;;7.20;;
22357;SDS011;11346;50.150;8.150;2023-06-10T02:10:36;12.13;;;7.40;;
22357;SDS011;11346;50.150;8.150;2023-06-10T02:13:03;8.27;;;7.27;;
22357;SDS011;11346;50.150;8.150;2023-06-10T02:15:31;11.00;;;7.40;;
22357;SDS011;11346;50.150;8.150;2023-06-10T02:17:59;12.23;;;7.17;;
22357;SDS011;11346;50.150;8.150;2023-06-10T02:20:26;8.33;;;7.13;;
22357;SDS011;11346;50.150;8.150;2023-06-10T02:22:53;7.80;;;6.70;;
22357;SDS011;11346;50.150;8.150;2023-06-10T02:25:20;9.10;;;6.87;;
22357;SDS011;11346;50.150;8.150;2023-06-10T02:27:47;10.20;;;7.23;;
22357;SDS011;11346;50.150;8.150;2023-06-10T02:30:14;7.97;;;7.17;;
22357;SDS011;11346;50.150;8.150;2023-06-10T02:32:42;7.50;;;6.57;;
22357;SDS011;11346;50.150;8.150;2023-06-10T02:35:12;7.27;;;6.43;;
22357;SDS011;11346;50.150;8.150;2023-06-10T02:37:39;8.10;;;5.80;;
22357;SDS011;11346;50.150;8.150;2023-06-10T02:40:07;8.47;;;7.10;;
22357;SDS011;11346;50.150;8.150;2023-06-10T02:42:35;9.73;;;6.33;;
22357;SDS011;11346;50.150;8.150;2023-06-10T02:45:02;7.73;;;6.10;;
22357;SDS011;11346;50.150;8.150;2023-06-10T02:47:29;7.97;;;6.50;;
22357;SDS011;11346;50.150;8.150;2023-06-10T02:49:57;8.00;;;6.87;;
22357;SDS011;11346;50.150;8.150;2023-06-10T02:52:25;11.40;;;7.30;;
22357;SDS011;11346;50.150;8.150;2023-06-10T02:54:52;9.60;;;7.83;;
22357;SDS011;11346;50.150;8.150;2023-06-10T02:57:19;9.43;;;8.43;;
22357;SDS011;11346;50.150;8.150;2023-06-10T02:59:46;9.53;;;8.10;;
22357;SDS011;11346;50.150;8.150;2023-06-10T03:02:13;8.77;;;7.47;;
22357;SDS011;11346;50.150;8.150;2023-06-10T03:04:40;11.23;;;7.80;;
22357;SDS011;11346;50.150;8.150;2023-06-10T03:07:09;9.37;;;7.07;;
22357;SDS011;11346;50.150;8.150;2023-06-10T03:09:37;11.43;;;8.00;;
22357;SDS011;11346;50.150;8.150;2023-06-10T03:12:05;11.40;;;7.90;;
22357;SDS011;11346;50.150;8.150;2023-06-10T03:14:32;8.43;;;7.53;;
22357;SDS011;11346;50.150;8.150;2023-06-10T03:16:59;9.37;;;7.90;;
22357;SDS011;11346;50.150;8.150;2023-06-10T03:19:27;11.30;;;7.83;;
22357;SDS011;11346;50.150;8.150;2023-06-10T03:21:57;11.27;;;8.13;;
22357;SDS011;11346;50.150;8.150;2023-06-10T03:24:26;10.23;;;8.23;;
22357;SDS011;11346;50.150;8.150;2023-06-10T03:26:53;9.43;;;7.77;;
22357;SDS011;11346;50.150;8.150;2023-06-10T03:29:20;10.80;;;7.97;;
22357;SDS011;11346;50.150;8.150;2023-06-10T03:31:47;13.13;;;8.00;;
22357;SDS011;11346;50.150;8.150;2023-06-10T03:34:14;11.97;;;7.73;;
22357;SDS011;11346;50.150;8.150;2023-06-10T03:36:41;10.93;;;7.90;;
22357;SDS011;11346;50.150;8.150;2023-06-10T03:39:08;10.73;;;7.90;;
22357;SDS011;11346;50.150;8.150;2023-06-10T03:41:37;10.70;;;8.30;;
22357;SDS011;11346;50.150;8.150;2023-06-10T03:44:04;9.53;;;8.30;;
22357;SDS011;11346;50.150;8.150;2023-06-10T03:46:31;10.10;;;8.00;;
22357;SDS011;11346;50.150;8.150;2023-06-10T03:48:58;11.40;;;8.47;;
22357;SDS011;11346;50.150;8.150;2023-06-10T03:51:25;10.40;;;7.77;;
22357;SDS011;11346;50.150;8.150;2023-06-10T03:53:52;11.87;;;8.10;;
22357;SDS011;11346;50.150;8.150;2023-06-10T03:56:19;9.23;;;8.00;;
22357;SDS011;11346;50.150;8.150;2023-06-10T03:58:48;12.80;;;8.60;;
22357;SDS011;11346;50.150;8.150;2023-06-10T04:01:15;8.83;;;7.93;;
22357;SDS011;11346;50.150;8.150;2023-06-10T04:03:43;8.93;;;7.90;;
22357;SDS011;11346;50.150;8.150;2023-06-10T04:06:10;13.83;;;9.13;;
22357;SDS011;11346;50.150;8.150;2023-06-10T04:08:37;10.67;;;8.63;;
22357;SDS011;11346;50.150;8.150;2023-06-10T04:11:04;11.70;;;8.30;;
22357;SDS011;11346;50.150;8.150;2023-06-10T04:13:31;10.30;;;8.40;;
22357;SDS011;11346;50.150;8.150;2023-06-10T04:15:59;9.73;;;8.17;;
22357;SDS011;11346;50.150;8.150;2023-06-10T04:18:27;12.57;;;8.67;;
22357;SDS011;11346;50.150;8.150;2023-06-10T04:20:54;9.53;;;8.17;;
22357;SDS011;11346;50.150;8.150;2023-06-10T04:23:21;12.37;;;8.50;;
22357;SDS011;11346;50.150;8.150;2023-06-10T04:25:49;13.23;;;8.80;;
22357;SDS011;11346;50.150;8.150;2023-06-10T04:28:16;10.40;;;8.50;;
22357;SDS011;11346;50.150;8.150;2023-06-10T04:30:43;13.20;;;8.63;;
22357;SDS011;11346;50.150;8.150;2023-06-10T04:33:12;11.70;;;8.80;;
22357;SDS011;11346;50.150;8.150;2023-06-10T04:35:39;11.90;;;8.37;;
22357;SDS011;11346;50.150;8.150;2023-06-10T04:38:07;11.00;;;8.90;;
22357;SDS011;11346;50.150;8.150;2023-06-10T04:40:34;10.10;;;8.10;;
22357;SDS011;11346;50.150;8.150;2023-06-10T04:43:01;10.80;;;8.13;;
22357;SDS011;11346;50.150;8.150;2023-06-10T04:45:28;12.73;;;7.93;;
22357;SDS011;11346;50.150;8.150;2023-06-10T04:47:56;10.57;;;8.20;;
22357;SDS011;11346;50.150;8.150;2023-06-10T04:50:24;8.87;;;7.80;;
22357;SDS011;11346;50.150;8.150;2023-06-10T04:52:51;10.57;;;8.10;;
22357;SDS011;11346;50.150;8.150;2023-06-10T04:55:22;12.57;;;8.30;;
22357;SDS011;11346;50.150;8.150;2023-06-10T04:57:49;9.97;;;7.87;;
22357;SDS011;11346;50.150;8.150;2023-06-10T05:00:16;11.07;;;7.73;;
22357;SDS011;11346;50.150;8.150;2023-06-10T05:02:43;14.27;;;8.23;;
22357;SDS011;11346;50.150;8.150;2023-06-10T05:05:14;11.53;;;8.50;;
22357;SDS011;11346;50.150;8.150;2023-06-10T05:07:42;11.00;;;8.43;;
22357;SDS011;11346;50.150;8.150;2023-06-10T05:10:10;11.73;;;7.80;;
22357;SDS011;11346;50.150;8.150;2023-06-10T05:12:37;10.27;;;7.73;;
22357;SDS011;11346;50.150;8.150;2023-06-10T05:15:04;10.70;;;8.50;;
22357;SDS011;11346;50.150;8.150;2023-06-10T05:17:31;9.80;;;8.50;;
22357;SDS011;11346;50.150;8.150;2023-06-10T05:19:59;12.50;;;8.80;;
22357;SDS011;11346;50.150;8.150;2023-06-10T05:22:26;10.43;;;8.53;;
22357;SDS011;11346;50.150;8.150;2023-06-10T05:24:55;12.75;;;9.70;;
22357;SDS011;11346;50.150;8.150;2023-06-10T05:27:22;11.80;;;9.47;;
22357;SDS011;11346;50.150;8.150;2023-06-10T05:29:49;9.73;;;8.30;;
22357;SDS011;11346;50.150;8.150;2023-06-10T05:32:17;14.70;;;9.10;;
22357;SDS011;11346;50.150;8.150;2023-06-10T05:34:44;15.63;;;9.13;;
22357;SDS011;11346;50.150;8.150;2023-06-10T05:37:12;10.73;;;8.50;;
22357;SDS011;11346;50.150;8.150;2023-06-10T05:39:39;12.17;;;9.07;;
22357;SDS011;11346;50.150;8.150;2023-06-10T05:42:08;13.80;;;9.57;;
22357;SDS011;11346;50.150;8.150;2023-06-10T05:44:35;12.57;;;9.27;;
22357;SDS011;11346;50.150;8.150;2023-06-10T05:47:02;10.97;;;9.30;;
22357;SDS011;11346;50.150;8.150;2023-06-10T05:49:29;12.33;;;9.23;;
22357;SDS011;11346;50.150;8.150;2023-06-10T05:51:57;13.40;;;8.60;;
22357;SDS011;11346;50.150;8.150;2023-06-10T05:54:24;11.73;;;8.90;;
22357;SDS011;11346;50.150;8.150;2023-06-10T05:56:51;10.73;;;9.07;;
22357;SDS011;11346;50.150;8.150;2023-06-10T05:59:19;11.57;;;9.13;;
22357;SDS011;11346;50.150;8.150;2023-06-10T06:01:47;11.23;;;8.77;;
22357;SDS011;11346;50.150;8.150;2023-06-10T06:04:15;10.50;;;9.00;;
22357;SDS011;11346;50.150;8.150;2023-06-10T06:06:42;13.77;;;8.33;;
22357;SDS011;11346;50.150;8.150;2023-06-10T06:09:09;9.40;;;8.40;;
22357;SDS011;11346;50.150;8.150;2023-06-10T06:11:36;11.23;;;8.60;;
22357;SDS011;11346;50.150;8.150;2023-06-10T06:14:03;11.17;;;8.70;;
22357;SDS011;11346;50.150;8.150;2023-06-10T06:16:32;11.77;;;9.10;;
22357;SDS011;11346;50.150;8.150;2023-06-10T06:18:59;11.13;;;8.27;;
22357;SDS011;11346;50.150;8.150;2023-06-10T06:21:26;15.53;;;8.57;;
22357;SDS011;11346;50.150;8.150;2023-06-10T06:23:53;11.17;;;8.23;;
22357;SDS011;11346;50.150;8.150;2023-06-10T06:26:20;10.13;;;8.33;;
22357;SDS011;11346;50.150;8.150;2023-06-10T06:28:47;10.00;;;7.93;;
22357;SDS011;11346;50.150;8.150;2023-06-10T06:31:14;10.67;;;7.83;;
22357;SDS011;11346;50.150;8.150;2023-06-10T06:33:42;12.63;;;8.57;;
22357;SDS011;11346;50.150;8.150;2023-06-10T06:36:09;14.27;;;8.73;;
22357;SDS011;11346;50.150;8.150;2023-06-10T06:38:36;8.90;;;7.97;;
22357;SDS011;11346;50.150;8.150;2023-06-10T06:41:03;11.03;;;7.87;;
22357;SDS011;11346;50.150;8.150;2023-06-10T06:43:31;12.57;;;8.50;;
22357;SDS011;11346;50.150;8.150;2023-06-10T06:45:58;12.30;;;8.63;;
22357;SDS011;11346;50.150;8.150;2023-06-10T06:48:25;10.67;;;7.87;;
22357;SDS011;11346;50.150;8.150;2023-06-10T06:50:53;10.73;;;8.20;;
22357;SDS011;11346;50.150;8.150;2023-06-10T06:53:23;9.30;;;8.00;;
22357;SDS011;11346;50.150;8.150;2023-06-10T06:55:50;10.90;;;8.03;;
22357;SDS011;11346;50.150;8.150;2023-06-10T06:58:17;9.63;;;8.03;;
22357;SDS011;11346;50.150;8.150;2023-06-10T07:00:44;10.57;;;8.00;;
22357;SDS011;11346;50.150;8.150;2023-06-10T07:03:11;8.73;;;7.53;;
22357;SDS011;11346;50.150;8.150;2023-06-10T07:05:38;9.27;;;7.40;;
22357;SDS011;11346;50.150;8.150;2023-06-10T07:08:06;8.30;;;7.13;;
22357;SDS011;11346;50.150;8.150;2023-06-10T07:10:33;7.97;;;7.17;;
22357;SDS011;11346;50.150;8.150;2023-06-10T07:13:00;9.93;;;7.50;;
22357;SDS011;11346;50.150;8.150;2023-06-10T07:15:27;8.00;;;7.17;;
22357;SDS011;11346;50.150;8.150;2023-06-10T07:17:54;8.43;;;7.30;;
22357;SDS011;11346;50.150;8.150;2023-06-10T07:20:21;9.67;;;7.30;;
22357;SDS011;11346;50.150;8.150;2023-06-10T07:22:48;9.40;;;7.60;;
22357;SDS011;11346;50.150;8.150;2023-06-10T07:25:17;9.67;;;7.43;;
22357;SDS011;11346;50.150;8.150;2023-06-10T07:27:44;10.13;;;7.20;;
22357;SDS011;11346;50.150;8.150;2023-06-10T07:30:12;13.23;;;7.30;;
22357;SDS011;11346;50.150;8.150;2023-06-10T07:32:40;9.77;;;7.20;;
22357;SDS011;11346;50.150;8.150;2023-06-10T07:35:08;9.23;;;7.83;;
22357;SDS011;11346;50.150;8.150;2023-06-10T07:37:36;12.03;;;7.67;;
22357;SDS011;11346;50.150;8.150;2023-06-10T07:40:03;8.80;;;7.17;;
22357;SDS011;11346;50.150;8.150;2023-06-10T07:42:33;9.27;;;6.93;;
22357;SDS011;11346;50.150;8.150;2023-06-10T07:45:01;8.97;;;7.70;;
22357;SDS011;11346;50.150;8.150;2023-06-10T07:47:28;10.67;;;7.60;;
22357;SDS011;11346;50.150;8.150;2023-06-10T07:49:55;11.77;;;7.80;;
22357;SDS011;11346;50.150;8.150;2023-06-10T07:52:22;9.50;;;7.37;;
22357;SDS011;11346;50.150;8.150;2023-06-10T07:54:49;9.53;;;7.40;;
22357;SDS011;11346;50.150;8.150;2023-06-10T07:57:16;10.07;;;7.87;;
22357;SDS011;11346;50.150;8.150;2023-06-10T07:59:44;9.73;;;7.10;;
22357;SDS011;11346;50.150;8.150;2023-06-10T08:02:11;10.13;;;7.30;;
22357;SDS011;11346;50.150;8.150;2023-06-10T08:04:38;8.80;;;7.70;;
22357;SDS011;11346;50.150;8.150;2023-06-10T08:07:05;9.73;;;7.50;;
22357;SDS011;11346;50.150;8.150;2023-06-10T08:09:32;8.23;;;7.43;;
22357;SDS011;11346;50.150;8.150;2023-06-10T08:12:00;11.27;;;7.30;;
22357;SDS011;11346;50.150;8.150;2023-06-10T08:14:27;15.13;;;7.93;;
22357;SDS011;11346;50.150;8.150;2023-06-10T08:16:55;10.90;;;8.13;;
22357;SDS011;11346;50.150;8.150;2023-06-10T08:19:22;8.40;;;7.40;;
22357;SDS011;11346;50.150;8.150;2023-06-10T08:21:49;10.67;;;7.47;;
22357;SDS011;11346;50.150;8.150;2023-06-10T08:24:16;8.87;;;7.50;;
22357;SDS011;11346;50.150;8.150;2023-06-10T08:26:45;9.23;;;7.07;;
22357;SDS011;11346;50.150;8.150;2023-06-10T08:29:12;8.60;;;7.70;;
22357;SDS011;11346;50.150;8.150;2023-06-10T08:31:40;8.10;;;7.30;;
22357;SDS011;11346;50.150;8.150;2023-06-10T08:34:10;11.03;;;7.30;;
22357;SDS011;11346;50.150;8.150;2023-06-10T08:36:37;10.47;;;7.20;;
22357;SDS011;11346;50.150;8.150;2023-06-10T08:39:04;11.40;;;6.73;;
22357;SDS011;11346;50.150;8.150;2023-06-10T08:41:32;8.80;;;7.90;;
22357;SDS011;11346;50.150;8.150;2023-06-10T08:44:03;8.00;;;7.20;;
22357;SDS011;11346;50.150;8.150;2023-06-10T08:46:31;8.10;;;7.30;;
22357;SDS011;11346;50.150;8.150;2023-06-10T08:48:59;7.60;;;6.67;;
22357;SDS011;11346;50.150;8.150;2023-06-10T08:51:30;7.73;;;6.93;;
22357;SDS011;11346;50.150;8.150;2023-06-10T08:53:59;7.40;;;6.30;;
22357;SDS011;11346;50.150;8.150;2023-06-10T08:56:28;8.27;;;6.83;;
22357;SDS011;11346;50.150;8.150;2023-06-10T08:58:56;8.83;;;6.97;;
22357;SDS011;11346;50.150;8.150;2023-06-10T09:01:24;12.90;;;6.87;;
22357;SDS011;11346;50.150;8.150;2023-06-10T09:03:51;9.77;;;7.10;;
22357;SDS011;11346;50.150;8.150;2023-06-10T09:06:19;8.50;;;6.97;;
22357;SDS011;11346;50.150;8.150;2023-06-10T09:08:47;8.40;;;6.40;;
22357;SDS011;11346;50.150;8.150;2023-06-10T09:11:14;6.73;;;5.67;;
22357;SDS011;11346;50.150;8.150;2023-06-10T09:13:41;10.87;;;5.50;;
22357;SDS011;11346;50.150;8.150;2023-06-10T09:16:08;6.03;;;5.10;;
22357;SDS011;11346;50.150;8.150;2023-06-10T09:18:36;7.53;;;5.10;;
22357;SDS011;11346;50.150;8.150;2023-06-10T09:21:03;6.07;;;5.50;;
22357;SDS011;11346;50.150;8.150;2023-06-10T09:23:30;8.20;;;6.00;;
22357;SDS011;11346;50.150;8.150;2023-06-10T09:25:59;7.23;;;6.00;;
22357;SDS011;11346;50.150;8.150;2023-06-10T09:28:26;7.17;;;5.70;;
22357;SDS011;11346;50.150;8.150;2023-06-10T09:31:03;9.57;;;5.50;;
22357;SDS011;11346;50.150;8.150;2023-06-10T09:33:30;7.43;;;5.50;;
22357;SDS011;11346;50.150;8.150;2023-06-10T09:35:59;6.43;;;5.17;;
22357;SDS011;11346;50.150;8.150;2023-06-10T09:38:29;9.07;;;5.93;;
22357;SDS011;11346;50.150;8.150;2023-06-10T09:40:57;7.27;;;5.53;;
22357;SDS011;11346;50.150;8.150;2023-06-10T09:43:38;7.40;;;5.50;;
22357;SDS011;11346;50.150;8.150;2023-06-10T09:46:05;7.30;;;5.23;;
22357;SDS011;11346;50.150;8.150;2023-06-10T09:48:34;6.73;;;5.00;;
22357;SDS011;11346;50.150;8.150;2023-06-10T09:51:01;6.03;;;5.00;;
22357;SDS011;11346;50.150;8.150;2023-06-10T09:53:29;5.23;;;4.73;;
22357;SDS011;11346;50.150;8.150;2023-06-10T09:55:59;7.87;;;4.90;;
22357;SDS011;11346;50.150;8.150;2023-06-10T09:58:34;5.73;;;4.70;;
22357;SDS011;11346;50.150;8.150;2023-06-10T10:01:04;9.37;;;4.80;;
22357;SDS011;11346;50.150;8.150;2023-06-10T10:03:31;6.73;;;4.73;;
22357;SDS011;11346;50.150;8.150;2023-06-10T10:05:58;7.37;;;4.80;;
22357;SDS011;11346;50.150;8.150;2023-06-10T10:08:26;6.63;;;4.40;;
22357;SDS011;11346;50.150;8.150;2023-06-10T10:10:53;6.47;;;4.77;;
22357;SDS011;11346;50.150;8.150;2023-06-10T10:13:21;5.67;;;4.40;;
22357;SDS011;11346;50.150;8.150;2023-06-10T10:15:49;4.87;;;4.43;;
22357;SDS011;11346;50.150;8.150;2023-06-10T10:18:17;5.20;;;4.43;;
22357;SDS011;11346;50.150;8.150;2023-06-10T10:20:49;6.07;;;4.77;;
22357;SDS011;11346;50.150;8.150;2023-06-10T10:23:18;5.93;;;4.60;;
22357;SDS011;11346;50.150;8.150;2023-06-10T10:25:49;6.77;;;4.93;;
22357;SDS011;11346;50.150;8.150;2023-06-10T10:28:17;7.17;;;4.70;;
22357;SDS011;11346;50.150;8.150;2023-06-10T10:30:46;4.43;;;4.03;;
22357;SDS011;11346;50.150;8.150;2023-06-10T10:33:16;8.60;;;4.97;;
22357;SDS011;11346;50.150;8.150;2023-06-10T10:35:43;8.70;;;4.80;;
22357;SDS011;11346;50.150;8.150;2023-06-10T10:38:10;5.87;;;4.83;;
22357;SDS011;11346;50.150;8.150;2023-06-10T10:40:38;6.47;;;4.70;;
22357;SDS011;11346;50.150;8.150;2023-06-10T10:43:05;4.67;;;4.27;;
22357;SDS011;11346;50.150;8.150;2023-06-10T10:45:33;4.60;;;4.20;;
22357;SDS011;11346;50.150;8.150;2023-06-10T10:48:04;5.20;;;4.37;;
22357;SDS011;11346;50.150;8.150;2023-06-10T10:50:34;6.10;;;4.47;;
22357;SDS011;11346;50.150;8.150;2023-06-10T10:53:01;4.87;;;3.93;;
22357;SDS011;11346;50.150;8.150;2023-06-10T10:55:29;8.63;;;4.17;;
22357;SDS011;11346;50.150;8.150;2023-06-10T10:57:56;7.20;;;4.00;;
22357;SDS011;11346;50.150;8.150;2023-06-10T11:00:24;8.00;;;3.90;;
22357;SDS011;11346;50.150;8.150;2023-06-10T11:02:51;5.37;;;3.90;;
22357;SDS011;11346;50.150;8.150;2023-06-10T11:05:20;5.57;;;4.00;;
22357;SDS011;11346;50.150;8.150;2023-06-10T11:07:58;5.10;;;3.57;;
22357;SDS011;11346;50.150;8.150;2023-06-10T11:10:29;4.60;;;4.03;;
22357;SDS011;11346;50.150;8.150;2023-06-10T11:12:56;7.30;;;3.67;;
22357;SDS011;11346;50.150;8.150;2023-06-10T11:15:24;7.30;;;3.63;;
22357;SDS011;11346;50.150;8.150;2023-06-10T11:18:11;4.00;;;3.60;;
22357;SDS011;11346;50.150;8.150;2023-06-10T11:20:54;7.67;;;3.60;;
22357;SDS011;11346;50.150;8.150;2023-06-10T11:23:42;3.77;;;3.47;;
22357;SDS011;11346;50.150;8.150;2023-06-10T11:26:10;4.90;;;3.77;;
22357;SDS011;11346;50.150;8.150;2023-06-10T11:28:37;7.27;;;3.77;;
22357;SDS011;11346;50.150;8.150;2023-06-10T11:31:04;4.17;;;3.63;;
22357;SDS011;11346;50.150;8.150;2023-06-10T11:33:31;4.07;;;3.60;;
22357;SDS011;11346;50.150;8.150;2023-06-10T11:35:59;4.93;;;3.10;;
22357;SDS011;11346;50.150;8.150;2023-06-10T11:38:26;4.47;;;3.20;;
22357;SDS011;11346;50.150;8.150;2023-06-10T11:40:55;6.47;;;3.50;;
22357;SDS011;11346;50.150;8.150;2023-06-10T11:43:22;4.03;;;3.57;;
22357;SDS011;11346;50.150;8.150;2023-06-10T11:45:53;7.07;;;3.10;;
22357;SDS011;11346;50.150;8.150;2023-06-10T11:48:21;4.00;;;3.33;;
22357;SDS011;11346;50.150;8.150;2023-06-10T11:50:48;5.93;;;3.70;;
22357;SDS011;11346;50.150;8.150;2023-06-10T11:53:15;5.93;;;3.50;;
22357;SDS011;11346;50.150;8.150;2023-06-10T11:55:42;3.90;;;3.50;;
22357;SDS011;11346;50.150;8.150;2023-06-10T11:58:13;6.07;;;3.83;;
22357;SDS011;11346;50.150;8.150;2023-06-10T12:00:44;4.20;;;3.60;;
22357;SDS011;11346;50.150;8.150;2023-06-10T12:03:11;4.27;;;3.87;;
22357;SDS011;11346;50.150;8.150;2023-06-10T12:05:38;6.10;;;4.00;;
22357;SDS011;11346;50.150;8.150;2023-06-10T12:08:09;4.33;;;3.80;;
22357;SDS011;11346;50.150;8.150;2023-06-10T12:10:39;7.53;;;3.67;;
22357;SDS011;11346;50.150;8.150;2023-06-10T12:13:07;5.37;;;3.83;;
22357;SDS011;11346;50.150;8.150;2023-06-10T12:15:35;3.90;;;3.50;;
22357;SDS011;11346;50.150;8.150;2023-06-10T12:18:02;8.47;;;4.00;;
22357;SDS011;11346;50.150;8.150;2023-06-10T12:20:30;4.00;;;3.60;;
22357;SDS011;11346;50.150;8.150;2023-06-10T12:22:59;7.80;;;3.80;;
22357;SDS011;11346;50.150;8.150;2023-06-10T12:25:26;6.30;;;3.50;;
22357;SDS011;11346;50.150;8.150;2023-06-10T12:27:54;6.83;;;3.30;;
22357;SDS011;11346;50.150;8.150;2023-06-10T12:30:22;4.97;;;3.50;;
22357;SDS011;11346;50.150;8.150;2023-06-10T12:32:52;5.53;;;3.23;;
22357;SDS011;11346;50.150;8.150;2023-06-10T12:35:20;5.60;;;3.63;;
22357;SDS011;11346;50.150;8.150;2023-06-10T12:37:55;3.67;;;3.37;;
22357;SDS011;11346;50.150;8.150;2023-06-10T12:40:27;4.10;;;3.30;;
22357;SDS011;11346;50.150;8.150;2023-06-10T12:42:55;3.43;;;3.13;;
22357;SDS011;11346;50.150;8.150;2023-06-10T12:45:28;7.47;;;3.57;;
22357;SDS011;11346;50.150;8.150;2023-06-10T12:48:06;5.57;;;3.50;;
22357;SDS011;11346;50.150;8.150;2023-06-10T12:50:34;3.97;;;3.60;;
22357;SDS011;11346;50.150;8.150;2023-06-10T12:53:02;5.67;;;3.30;;
22357;SDS011;11346;50.150;8.150;2023-06-10T12:55:29;4.47;;;3.73;;
22357;SDS011;11346;50.150;8.150;2023-06-10T12:57:57;4.60;;;3.40;;
22357;SDS011;11346;50.150;8.150;2023-06-10T13:00:25;6.63;;;3.57;;
22357;SDS011;11346;50.150;8.150;2023-06-10T13:02:55;4.23;;;3.83;;
22357;SDS011;11346;50.150;8.150;2023-06-10T13:05:23;6.23;;;3.50;;
22357;SDS011;11346;50.150;8.150;2023-06-10T13:07:50;4.97;;;3.40;;
22357;SDS011;11346;50.150;8.150;2023-06-10T13:10:17;4.97;;;3.73;;
22357;SDS011;11346;50.150;8.150;2023-06-10T13:12:44;4.57;;;3.57;;
22357;SDS011;11346;50.150;8.150;2023-06-10T13:15:12;5.77;;;4.23;;
22357;SDS011;11346;50.150;8.150;2023-06-10T13:17:39;5.83;;;4.10;;
22357;SDS011;11346;50.150;8.150;2023-06-10T13:20:07;5.93;;;4.10;;
22357;SDS011;11346;50.150;8.150;2023-06-10T13:22:36;6.30;;;4.30;;
22357;SDS011;11346;50.150;8.150;2023-06-10T13:25:03;6.20;;;4.63;;
22357;SDS011;11346;50.150;8.150;2023-06-10T13:27:31;5.70;;;4.37;;
22357;SDS011;11346;50.150;8.150;2023-06-10T13:29:59;7.53;;;4.73;;
22357;SDS011;11346;50.150;8.150;2023-06-10T13:32:26;7.10;;;4.20;;
22357;SDS011;11346;50.150;8.150;2023-06-10T13:34:53;6.37;;;4.97;;
22357;SDS011;11346;50.150;8.150;2023-06-10T13:37:22;5.73;;;4.87;;
22357;SDS011;11346;50.150;8.150;2023-06-10T13:39:50;6.60;;;4.53;;
22357;SDS011;11346;50.150;8.150;2023-06-10T13:42:18;7.33;;;4.93;;
22357;SDS011;11346;50.150;8.150;2023-06-10T13:44:45;8.47;;;4.90;;
22357;SDS011;11346;50.150;8.150;2023-06-10T13:47:12;5.57;;;5.00;;
22357;SDS011;11346;50.150;8.150;2023-06-10T13:49:39;6.60;;;4.97;;
22357;SDS011;11346;50.150;8.150;2023-06-10T13:52:06;5.23;;;4.70;;
22357;SDS011;11346;50.150;8.150;2023-06-10T13:54:34;5.40;;;4.70;;
22357;SDS011;11346;50.150;8.150;2023-06-10T13:57:03;11.47;;;5.30;;
22357;SDS011;11346;50.150;8.150;2023-06-10T13:59:30;10.20;;;5.17;;
22357;SDS011;11346;50.150;8.150;2023-06-10T14:01:57;9.53;;;5.20;;
22357;SDS011;11346;50.150;8.150;2023-06-10T14:04:25;7.97;;;5.10;;
22357;SDS011;11346;50.150;8.150;2023-06-10T14:06:52;5.20;;;4.70;;
22357;SDS011;11346;50.150;8.150;2023-06-10T14:09:19;9.03;;;5.40;;
22357;SDS011;11346;50.150;8.150;2023-06-10T14:11:47;5.67;;;5.00;;
22357;SDS011;11346;50.150;8.150;2023-06-10T14:14:15;6.60;;;5.33;;
22357;SDS011;11346;50.150;8.150;2023-06-10T14:16:42;6.30;;;5.50;;
22357;SDS011;11346;50.150;8.150;2023-06-10T14:19:09;7.00;;;5.20;;
22357;SDS011;11346;50.150;8.150;2023-06-10T14:21:36;5.80;;;5.20;;
22357;SDS011;11346;50.150;8.150;2023-06-10T14:24:03;8.47;;;5.57;;
22357;SDS011;11346;50.150;8.150;2023-06-10T14:26:30;9.50;;;5.00;;
22357;SDS011;11346;50.150;8.150;2023-06-10T14:28:57;8.77;;;5.40;;
22357;SDS011;11346;50.150;8.150;2023-06-10T14:31:28;10.23;;;5.90;;
22357;SDS011;11346;50.150;8.150;2023-06-10T14:33:55;6.97;;;5.70;;
22357;SDS011;11346;50.150;8.150;2023-06-10T14:36:22;6.53;;;5.50;;
22357;SDS011;11346;50.150;8.150;2023-06-10T14:38:49;7.67;;;5.77;;
22357;SDS011;11346;50.150;8.150;2023-06-10T14:41:16;6.90;;;5.10;;
22357;SDS011;11346;50.150;8.150;2023-06-10T14:43:43;6.67;;;5.30;;
22357;SDS011;11346;50.150;8.150;2023-06-10T14:46:10;5.77;;;5.13;;
22357;SDS011;11346;50.150;8.150;2023-06-10T14:48:38;6.03;;;5.47;;
22357;SDS011;11346;50.150;8.150;2023-06-10T14:51:05;7.13;;;5.50;;